createdAt,value
2023-05-19T00:01:52.555Z,45.05
2023-05-19T00:04:25.848Z,45.11
2023-05-19T00:07:00.385Z,45.43
2023-05-19T00:09:33.723Z,45.24
2023-05-19T00:12:10.674Z,45.46
2023-05-19T00:14:43.874Z,45.89
2023-05-19T00:17:17.479Z,45.93
2023-05-19T00:19:50.430Z,45.82
2023-05-19T00:22:23.150Z,45.77
2023-05-19T00:24:56.533Z,45.65
2023-05-19T00:27:30.730Z,45.78
2023-05-19T00:30:03.539Z,46.07
2023-05-19T00:32:36.517Z,46.00
2023-05-19T00:35:09.670Z,46.09
2023-05-19T00:37:43.440Z,46.08
2023-05-19T00:40:17.968Z,46.49
2023-05-19T00:42:52.355Z,46.72
2023-05-19T00:45:26.122Z,46.54
2023-05-19T00:47:59.117Z,46.64
2023-05-19T00:50:33.574Z,46.83
2023-05-19T00:53:06.865Z,46.66
2023-05-19T00:55:40.549Z,46.64
2023-05-19T00:58:15.608Z,46.62
2023-05-19T01:00:49.754Z,46.83
2023-05-19T01:03:23.307Z,46.99
2023-05-19T01:05:56.224Z,46.91
2023-05-19T01:08:31.723Z,47.10
2023-05-19T01:11:05.391Z,46.97
2023-05-19T01:13:41.947Z,46.77
2023-05-19T01:16:23.135Z,46.94
2023-05-19T01:19:04.005Z,46.92
2023-05-19T01:22:13.088Z,47.17
2023-05-19T01:25:36.101Z,47.18
2023-05-19T01:28:27.251Z,47.14
2023-05-19T01:31:02.123Z,47.37
2023-05-19T01:33:35.997Z,47.52
2023-05-19T01:36:09.735Z,47.34
2023-05-19T01:38:44.383Z,47.26
2023-05-19T01:41:17.680Z,47.67
2023-05-19T01:43:58.017Z,47.16
2023-05-19T01:46:32.365Z,47.30
2023-05-19T01:49:05.893Z,47.25
2023-05-19T01:51:38.765Z,47.74
2023-05-19T01:54:11.524Z,47.86
2023-05-19T01:56:53.644Z,47.82
2023-05-19T01:59:42.568Z,47.60
2023-05-19T02:02:27.409Z,47.64
2023-05-19T02:05:10.967Z,47.66
2023-05-19T02:07:49.878Z,47.60
2023-05-19T02:10:27.702Z,47.91
2023-05-19T02:13:05.874Z,47.62
2023-05-19T02:15:42.364Z,47.73
2023-05-19T02:18:20.428Z,47.74
2023-05-19T02:20:58.516Z,47.96
2023-05-19T02:23:31.935Z,47.92
2023-05-19T02:26:04.903Z,48.00
2023-05-19T02:28:39.268Z,47.81
2023-05-19T02:31:11.904Z,47.97
2023-05-19T02:33:48.889Z,47.72
2023-05-19T02:36:21.695Z,47.63
2023-05-19T02:38:55.698Z,47.82
2023-05-19T02:41:28.736Z,48.02
2023-05-19T02:44:01.711Z,48.29
2023-05-19T02:46:34.582Z,48.12
2023-05-19T02:49:09.080Z,48.24
2023-05-19T02:51:41.972Z,48.17
2023-05-19T02:54:15.178Z,48.15
2023-05-19T02:56:47.941Z,48.45
2023-05-19T02:59:20.846Z,48.52
2023-05-19T03:01:56.995Z,48.35
2023-05-19T03:04:31.703Z,48.47
2023-05-19T03:07:06.408Z,48.39
2023-05-19T03:09:39.331Z,48.40
2023-05-19T03:12:12.105Z,48.74
2023-05-19T03:14:47.025Z,48.28
2023-05-19T03:17:19.962Z,48.23
2023-05-19T03:19:54.024Z,48.31
2023-05-19T03:22:26.992Z,48.24
2023-05-19T03:25:00.056Z,48.77
2023-05-19T03:27:32.959Z,48.41
2023-05-19T03:30:06.895Z,48.38
2023-05-19T03:32:45.251Z,48.18
2023-05-19T03:35:20.383Z,48.60
2023-05-19T03:37:53.288Z,48.53
2023-05-19T03:40:27.076Z,48.38
2023-05-19T03:43:06.229Z,48.61
2023-05-19T03:45:44.020Z,48.40
2023-05-19T03:48:36.880Z,48.49
2023-05-19T03:51:39.650Z,48.65
2023-05-19T03:54:24.318Z,48.59
2023-05-19T03:56:57.162Z,48.86
2023-05-19T03:59:29.944Z,48.73
2023-05-19T04:02:02.848Z,48.65
2023-05-19T04:04:35.806Z,48.70
2023-05-19T04:07:10.128Z,48.89
2023-05-19T04:09:42.960Z,48.93
2023-05-19T04:12:17.900Z,48.88
2023-05-19T04:14:51.422Z,49.33
2023-05-19T04:17:28.410Z,49.41
2023-05-19T04:20:01.419Z,48.94
2023-05-19T04:22:35.929Z,49.34
2023-05-19T04:25:09.484Z,48.97
2023-05-19T04:27:42.593Z,49.37
2023-05-19T04:30:22.621Z,49.19
2023-05-19T04:32:58.155Z,48.77
2023-05-19T04:35:32.034Z,49.55
2023-05-19T04:38:08.127Z,49.62
2023-05-19T04:40:44.585Z,49.33
2023-05-19T04:43:18.135Z,49.24
2023-05-19T04:45:51.662Z,49.15
2023-05-19T04:48:27.428Z,49.44
2023-05-19T04:51:01.554Z,49.38
2023-05-19T04:53:36.636Z,49.63
2023-05-19T04:56:16.119Z,51.05
2023-05-19T04:58:51.134Z,50.92
2023-05-19T05:01:26.013Z,50.79
2023-05-19T05:04:02.334Z,50.31
2023-05-19T05:06:38.600Z,50.29
2023-05-19T05:09:13.696Z,50.91
2023-05-19T05:11:47.092Z,50.30
2023-05-19T05:14:20.558Z,50.69
2023-05-19T05:16:56.832Z,50.78
2023-05-19T05:19:31.500Z,50.49
2023-05-19T05:22:06.248Z,50.95
2023-05-19T05:24:43.266Z,50.66
2023-05-19T05:40:30.539Z,50.90
2023-05-19T05:43:03.580Z,50.81
2023-05-19T05:45:40.054Z,51.25
2023-05-19T05:48:14.666Z,51.18
2023-05-19T05:50:49.948Z,51.31
2023-05-19T05:53:27.797Z,51.14
2023-05-19T05:56:03.544Z,51.17
2023-05-19T05:58:44.623Z,51.38
2023-05-19T06:01:17.925Z,51.22
2023-05-19T06:03:50.952Z,51.50
2023-05-19T06:06:27.237Z,51.07
2023-05-19T06:09:00.809Z,51.05
2023-05-19T06:11:36.496Z,50.76
2023-05-19T06:14:10.745Z,50.66
2023-05-19T06:17:18.035Z,51.04
2023-05-19T06:19:51.057Z,51.32
2023-05-19T06:22:23.795Z,51.36
2023-05-19T06:24:56.652Z,51.39
2023-05-19T06:27:32.622Z,51.09
2023-05-19T06:30:09.134Z,51.43
2023-05-19T06:32:51.962Z,51.34
2023-05-19T06:35:24.761Z,51.56
2023-05-19T06:37:57.870Z,51.06
2023-05-19T06:40:31.145Z,51.05
2023-05-19T06:43:06.215Z,51.00
2023-05-19T06:45:57.918Z,51.01
2023-05-19T06:48:32.333Z,51.42
2023-05-19T06:51:06.255Z,54.48
2023-05-19T06:53:40.451Z,53.12
2023-05-19T06:56:15.718Z,54.30
2023-05-19T06:58:49.972Z,54.22
2023-05-19T07:01:26.689Z,53.43
2023-05-19T07:04:01.921Z,55.78
2023-05-19T07:06:35.819Z,54.84
2023-05-19T07:09:08.924Z,54.37
2023-05-19T07:11:43.481Z,53.91
2023-05-19T07:14:18.270Z,53.81
2023-05-19T07:16:51.320Z,53.93
2023-05-19T07:19:24.241Z,52.35
2023-05-19T07:21:59.357Z,53.40
2023-05-19T07:24:32.202Z,52.33
2023-05-19T07:27:05.630Z,52.65
2023-05-19T07:29:39.934Z,54.36
2023-05-19T07:32:13.041Z,50.52
2023-05-19T07:34:50.841Z,50.70
2023-05-19T07:37:26.587Z,48.88
2023-05-19T07:40:01.253Z,49.65
2023-05-19T07:42:36.642Z,49.22
2023-05-19T07:45:12.629Z,49.26
2023-05-19T07:47:49.365Z,49.78
2023-05-19T07:50:24.140Z,46.97
2023-05-19T07:52:58.952Z,48.11
2023-05-19T07:55:34.525Z,47.65
2023-05-19T07:58:09.908Z,46.29
2023-05-19T08:00:46.047Z,46.68
2023-05-19T08:03:19.220Z,47.83
2023-05-19T08:05:52.176Z,48.21
2023-05-19T08:08:25.185Z,47.04
2023-05-19T08:10:57.946Z,44.78
2023-05-19T08:13:30.953Z,46.63
2023-05-19T08:16:05.601Z,45.03
2023-05-19T08:18:38.549Z,43.75
2023-05-19T08:21:11.850Z,43.97
2023-05-19T08:23:44.732Z,45.24
2023-05-19T08:26:17.590Z,43.15
2023-05-19T08:28:50.530Z,42.51
2023-05-19T08:31:25.036Z,44.86
2023-05-19T08:33:57.919Z,42.02
2023-05-19T08:36:30.880Z,42.45
2023-05-19T08:39:03.847Z,43.26
2023-05-19T08:41:36.933Z,39.97
2023-05-19T08:44:09.692Z,42.99
2023-05-19T08:46:45.148Z,38.88
2023-05-19T08:49:25.591Z,40.71
2023-05-19T08:52:03.781Z,38.42
2023-05-19T08:54:44.758Z,38.94
2023-05-19T08:57:18.624Z,38.85
2023-05-19T08:59:53.167Z,38.04
2023-05-19T09:02:28.469Z,36.50
2023-05-19T09:05:02.217Z,39.07
2023-05-19T09:07:37.864Z,37.44
2023-05-19T09:10:14.176Z,39.68
2023-05-19T09:12:48.888Z,36.45
2023-05-19T09:15:22.530Z,36.64
2023-05-19T09:18:08.852Z,35.25
2023-05-19T09:20:43.499Z,38.18
2023-05-19T09:23:17.492Z,36.49
2023-05-19T09:25:51.919Z,36.72
2023-05-19T09:28:26.838Z,32.98
2023-05-19T09:31:03.977Z,35.30
2023-05-19T09:33:40.710Z,36.72
2023-05-19T09:36:15.333Z,35.91
2023-05-19T09:38:48.329Z,34.77
2023-05-19T09:41:22.146Z,34.68
2023-05-19T09:43:56.228Z,35.75
2023-05-19T09:46:30.528Z,32.04
2023-05-19T09:49:10.601Z,34.50
2023-05-19T09:51:43.559Z,33.04
2023-05-19T09:54:18.143Z,33.95
2023-05-19T09:56:58.926Z,34.27
2023-05-19T09:59:33.803Z,33.56
2023-05-19T10:02:10.320Z,34.29
2023-05-19T10:04:46.023Z,34.50
2023-05-19T10:07:21.001Z,33.89
2023-05-19T10:09:56.715Z,34.53
2023-05-19T10:12:33.385Z,35.14
2023-05-19T10:15:08.889Z,34.24
2023-05-19T10:17:43.197Z,34.98
2023-05-19T10:20:18.951Z,34.60
2023-05-19T10:22:52.353Z,33.68
2023-05-19T10:25:25.659Z,32.33
2023-05-19T10:28:03.389Z,34.17
2023-05-19T10:30:40.008Z,36.03
2023-05-19T10:33:16.767Z,34.09
2023-05-19T10:36:14.641Z,34.77
2023-05-19T10:38:53.450Z,34.02
2023-05-19T10:41:32.153Z,31.17
2023-05-19T10:44:18.148Z,33.13
2023-05-19T10:46:51.145Z,31.26
2023-05-19T10:49:24.831Z,30.51
2023-05-19T10:51:59.085Z,32.14
2023-05-19T10:54:43.349Z,29.47
2023-05-19T10:57:17.849Z,32.61
2023-05-19T10:59:51.315Z,28.97
2023-05-19T11:02:39.847Z,32.96
2023-05-19T11:05:14.736Z,31.34
2023-05-19T11:08:00.202Z,27.28
2023-05-19T11:10:33.937Z,27.66
2023-05-19T11:13:06.984Z,30.50
2023-05-19T11:15:43.904Z,31.36
2023-05-19T11:18:17.536Z,28.97
2023-05-19T11:21:02.375Z,29.78
2023-05-19T11:23:40.243Z,28.64
2023-05-19T11:26:15.693Z,30.60
2023-05-19T11:28:49.453Z,26.89
2023-05-19T11:31:22.979Z,30.74
2023-05-19T11:33:56.207Z,29.02
2023-05-19T11:36:31.251Z,26.58
2023-05-19T11:39:07.119Z,26.59
2023-05-19T11:41:41.086Z,28.18
2023-05-19T11:44:13.877Z,26.15
2023-05-19T11:46:46.629Z,26.77
2023-05-19T11:49:21.781Z,28.17
2023-05-19T11:51:55.506Z,27.29
2023-05-19T11:54:33.803Z,27.23
2023-05-19T11:57:09.577Z,28.38
2023-05-19T11:59:45.759Z,26.52
2023-05-19T12:02:21.894Z,25.68
2023-05-19T12:05:06.459Z,28.53
2023-05-19T12:07:43.583Z,29.90
2023-05-19T12:10:25.042Z,27.42
2023-05-19T12:12:59.367Z,29.97
2023-05-19T12:15:33.592Z,27.24
2023-05-19T12:18:09.068Z,28.50
2023-05-19T12:20:48.448Z,28.70
2023-05-19T12:23:21.931Z,26.65
2023-05-19T12:26:05.491Z,30.28
2023-05-19T12:28:41.549Z,27.83
2023-05-19T12:31:20.019Z,27.87
2023-05-19T12:33:56.929Z,28.47
2023-05-19T12:36:43.894Z,28.70
2023-05-19T12:39:42.855Z,26.42
2023-05-19T12:42:43.164Z,24.54
2023-05-19T12:45:16.268Z,27.29
2023-05-19T12:47:52.249Z,29.00
2023-05-19T12:50:35.378Z,29.90
2023-05-19T12:53:17.661Z,28.85
2023-05-19T12:55:53.920Z,27.20
2023-05-19T12:58:36.006Z,25.42
2023-05-19T13:01:09.518Z,26.06
2023-05-19T13:03:46.138Z,24.88
2023-05-19T13:06:22.024Z,29.25
2023-05-19T13:08:58.028Z,27.35
2023-05-19T13:11:31.205Z,28.36
2023-05-19T13:14:05.650Z,25.68
2023-05-19T13:16:38.825Z,27.43
2023-05-19T13:19:24.246Z,27.92
2023-05-19T13:21:58.888Z,27.11
2023-05-19T13:24:34.465Z,26.08
2023-05-19T13:27:09.280Z,26.60
2023-05-19T13:29:45.578Z,27.41
2023-05-19T13:32:18.633Z,25.42
2023-05-19T13:34:51.960Z,27.05
2023-05-19T13:37:39.583Z,27.76
2023-05-19T13:40:16.131Z,27.33
2023-05-19T13:42:52.439Z,25.43
2023-05-19T13:45:26.821Z,27.68
2023-05-19T13:48:01.841Z,27.49
2023-05-19T13:50:35.723Z,27.50
2023-05-19T13:53:14.187Z,26.36
2023-05-19T13:55:55.180Z,26.58
2023-05-19T13:58:28.246Z,25.66
2023-05-19T14:01:02.990Z,25.81
2023-05-19T14:03:37.192Z,27.94
2023-05-19T14:06:12.670Z,27.18
2023-05-19T14:08:46.794Z,23.68
2023-05-19T14:11:22.711Z,24.61
2023-05-19T14:13:56.172Z,26.39
2023-05-19T14:16:31.933Z,25.97
2023-05-19T14:19:08.238Z,25.62
2023-05-19T14:21:46.874Z,26.81
2023-05-19T14:24:21.774Z,23.64
2023-05-19T14:26:54.873Z,25.16
2023-05-19T14:29:30.306Z,24.37
2023-05-19T14:32:06.007Z,27.22
2023-05-19T14:34:40.305Z,25.06
2023-05-19T14:37:13.392Z,23.21
2023-05-19T14:40:00.502Z,26.84
2023-05-19T14:42:33.694Z,24.25
2023-05-19T14:45:07.594Z,26.77
2023-05-19T14:47:45.098Z,26.61
2023-05-19T14:50:18.772Z,26.09
2023-05-19T14:52:54.853Z,24.15
2023-05-19T14:55:28.223Z,24.43
2023-05-19T14:58:15.960Z,26.21
2023-05-19T15:00:59.917Z,25.70
2023-05-19T15:03:34.343Z,26.69
2023-05-19T15:06:10.569Z,24.54
2023-05-19T15:08:44.097Z,25.98
2023-05-19T15:11:20.872Z,24.40
2023-05-19T15:13:54.142Z,25.25
2023-05-19T15:16:27.314Z,25.02
2023-05-19T15:19:01.804Z,23.73
2023-05-19T15:21:34.815Z,25.86
2023-05-19T15:24:08.280Z,24.34
2023-05-19T15:26:41.242Z,26.27
2023-05-19T15:29:14.195Z,24.81
2023-05-19T15:31:47.480Z,26.66
2023-05-19T15:34:31.444Z,26.16
2023-05-19T15:37:04.687Z,26.22
2023-05-19T15:39:37.587Z,26.16
2023-05-19T15:42:10.509Z,25.91
2023-05-19T15:44:47.056Z,26.42
2023-05-19T15:47:20.258Z,26.21
2023-05-19T15:49:57.137Z,26.68
2023-05-19T15:52:30.106Z,26.73
2023-05-19T15:55:03.456Z,27.46
2023-05-19T15:57:36.368Z,28.53
2023-05-19T16:00:12.139Z,28.01
2023-05-19T16:02:45.168Z,29.10
2023-05-19T16:05:19.762Z,28.48
2023-05-19T16:07:52.736Z,28.35
2023-05-19T16:10:25.974Z,28.30
2023-05-19T16:12:58.781Z,28.82
2023-05-19T16:15:31.952Z,28.17
2023-05-19T16:18:05.095Z,29.39
2023-05-19T16:20:47.085Z,30.28
2023-05-19T16:23:19.942Z,29.26
2023-05-19T16:25:53.276Z,30.27
2023-05-19T16:28:27.961Z,29.93
2023-05-19T16:31:01.545Z,30.31
2023-05-19T16:33:34.432Z,30.21
2023-05-19T16:36:11.829Z,31.65
2023-05-19T16:38:44.602Z,30.92
2023-05-19T16:41:17.489Z,30.84
2023-05-19T16:43:50.488Z,30.78
2023-05-19T16:46:25.543Z,30.62
2023-05-19T16:49:03.840Z,31.16
2023-05-19T16:51:38.353Z,31.20
2023-05-19T16:54:15.933Z,32.72
2023-05-19T16:56:48.934Z,32.36
2023-05-19T16:59:21.915Z,32.23
2023-05-19T17:01:56.100Z,34.75
2023-05-19T17:04:30.744Z,35.18
2023-05-19T17:07:05.618Z,33.45
2023-05-19T17:09:40.687Z,32.77
2023-05-19T17:12:13.861Z,34.50
2023-05-19T17:14:46.751Z,33.95
2023-05-19T17:17:20.437Z,33.17
2023-05-19T17:19:53.560Z,33.41
2023-05-19T17:22:30.147Z,33.35
2023-05-19T17:25:04.042Z,34.63
2023-05-19T17:27:38.303Z,35.17
2023-05-19T17:30:12.386Z,35.15
2023-05-19T17:32:45.568Z,35.75
2023-05-19T17:35:18.778Z,34.83
2023-05-19T17:37:53.272Z,36.17
2023-05-19T17:40:26.823Z,37.54
2023-05-19T17:42:59.850Z,35.74
2023-05-19T17:45:33.058Z,34.94
2023-05-19T17:48:09.196Z,34.86
2023-05-19T17:50:42.326Z,35.07
2023-05-19T17:53:17.552Z,34.64
2023-05-19T17:55:52.972Z,35.25
2023-05-19T17:58:26.499Z,35.32
2023-05-19T18:00:59.638Z,35.13
2023-05-19T18:03:33.190Z,35.28
2023-05-19T18:06:07.629Z,35.37
2023-05-19T18:08:43.132Z,35.47
2023-05-19T18:11:16.861Z,35.43
2023-05-19T18:13:49.719Z,35.60
2023-05-19T18:16:22.539Z,35.30
2023-05-19T18:18:55.756Z,35.93
2023-05-19T18:21:28.904Z,35.76
2023-05-19T18:24:04.524Z,35.80
2023-05-19T18:26:41.698Z,36.05
2023-05-19T18:29:15.004Z,35.71
2023-05-19T18:31:47.927Z,35.91
2023-05-19T18:34:20.930Z,36.15
2023-05-19T18:36:53.764Z,35.92
2023-05-19T18:39:29.360Z,36.17
2023-05-19T18:42:02.616Z,36.33
2023-05-19T18:44:35.709Z,36.57
2023-05-19T18:47:08.741Z,36.75
2023-05-19T18:49:42.168Z,36.72
2023-05-19T18:52:15.077Z,36.43
2023-05-19T18:54:50.289Z,36.70
2023-05-19T18:57:23.251Z,36.77
2023-05-19T18:59:56.375Z,36.64
2023-05-19T19:02:29.600Z,36.72
2023-05-19T19:05:04.056Z,37.01
2023-05-19T19:07:40.562Z,36.73
2023-05-19T19:10:15.440Z,37.17
2023-05-19T19:12:48.484Z,37.52
2023-05-19T19:15:21.599Z,37.25
2023-05-19T19:17:54.687Z,37.56
2023-05-19T19:20:27.754Z,37.73
2023-05-19T19:23:01.940Z,37.98
2023-05-19T19:25:36.356Z,38.15
2023-05-19T19:28:14.100Z,38.40
2023-05-19T19:30:47.680Z,38.58
2023-05-19T19:33:20.855Z,38.80
2023-05-19T19:35:54.903Z,38.88
2023-05-19T19:38:28.124Z,38.87
2023-05-19T19:41:02.494Z,39.02
2023-05-19T19:43:35.709Z,39.16
2023-05-19T19:46:09.264Z,39.78
2023-05-19T19:48:42.346Z,39.79
2023-05-19T19:51:17.721Z,40.07
2023-05-19T19:53:50.599Z,40.02
2023-05-19T19:56:26.266Z,40.05
2023-05-19T19:58:59.478Z,40.66
2023-05-19T20:01:33.806Z,40.55
2023-05-19T20:04:09.045Z,40.87
2023-05-19T20:06:42.047Z,40.67
2023-05-19T20:09:14.670Z,40.91
2023-05-19T20:11:49.179Z,41.21
2023-05-19T20:14:24.424Z,41.28
2023-05-19T20:16:57.185Z,41.11
2023-05-19T20:19:34.163Z,41.32
2023-05-19T20:22:07.281Z,41.79
2023-05-19T20:24:39.979Z,41.92
2023-05-19T20:27:14.142Z,42.11
2023-05-19T20:29:47.031Z,42.18
2023-05-19T20:32:19.695Z,42.62
2023-05-19T20:34:53.797Z,42.84
2023-05-19T20:37:26.605Z,42.44
2023-05-19T20:39:59.349Z,42.38
2023-05-19T20:42:33.708Z,42.24
2023-05-19T20:45:10.292Z,42.41
2023-05-19T20:47:43.564Z,42.44
2023-05-19T20:50:16.511Z,42.68
2023-05-19T20:52:49.205Z,42.45
2023-05-19T20:55:22.261Z,42.43
2023-05-19T20:57:56.442Z,42.44
2023-05-19T21:00:30.526Z,42.50
2023-05-19T21:03:03.612Z,42.72
2023-05-19T21:05:36.491Z,42.80
2023-05-19T21:08:12.845Z,42.92
2023-05-19T21:10:45.816Z,42.96
2023-05-19T21:13:20.004Z,43.19
2023-05-19T21:15:52.806Z,42.85
2023-05-19T21:18:25.624Z,43.26
2023-05-19T21:20:58.404Z,42.91
2023-05-19T21:23:31.338Z,43.31
2023-05-19T21:26:04.842Z,42.77
2023-05-19T21:28:38.937Z,42.87
2023-05-19T21:31:11.735Z,43.05
2023-05-19T21:33:44.529Z,42.98
2023-05-19T21:36:18.332Z,43.22
2023-05-19T21:38:51.773Z,43.12
2023-05-19T21:41:24.547Z,43.29
2023-05-19T21:43:58.771Z,43.58
2023-05-19T21:46:31.927Z,43.83
2023-05-19T21:49:06.380Z,43.87
2023-05-19T21:51:40.600Z,43.77
2023-05-19T21:54:13.440Z,44.07
2023-05-19T21:56:46.247Z,44.20
2023-05-19T21:59:23.188Z,43.76
2023-05-19T22:01:56.037Z,44.21
2023-05-19T22:04:31.477Z,44.77
2023-05-19T22:07:04.368Z,44.56
2023-05-19T22:09:38.047Z,44.70
2023-05-19T22:12:10.838Z,44.83
2023-05-19T22:14:44.962Z,44.76
2023-05-19T22:17:17.743Z,44.70
2023-05-19T22:19:50.528Z,45.22
2023-05-19T22:22:23.294Z,45.17
2023-05-19T22:24:56.686Z,45.23
2023-05-19T22:27:29.435Z,45.15
2023-05-19T22:30:03.708Z,45.55
2023-05-19T22:32:36.929Z,45.70
2023-05-19T22:35:10.831Z,45.62
2023-05-19T22:37:43.533Z,45.69
2023-05-19T22:40:16.448Z,45.85
2023-05-19T22:42:49.091Z,46.03
2023-05-19T22:45:23.606Z,46.13
2023-05-19T22:47:56.667Z,46.08
2023-05-19T22:50:29.569Z,45.83
2023-05-19T22:53:02.259Z,46.19
2023-05-19T22:55:35.468Z,46.27
2023-05-19T22:58:08.986Z,46.30
2023-05-19T23:00:43.299Z,46.37
2023-05-19T23:03:16.357Z,46.14
2023-05-19T23:05:49.288Z,46.52
2023-05-19T23:08:21.943Z,46.13
2023-05-19T23:10:54.760Z,46.78
2023-05-19T23:13:27.664Z,46.52
2023-05-19T23:16:01.863Z,46.90
2023-05-19T23:18:34.575Z,46.75
2023-05-19T23:21:07.522Z,47.04
2023-05-19T23:23:43.096Z,46.72
2023-05-19T23:26:16.750Z,46.71
2023-05-19T23:28:49.566Z,46.73
2023-05-19T23:31:24.219Z,47.06
2023-05-19T23:33:57.063Z,47.12
2023-05-19T23:36:29.908Z,47.19
2023-05-19T23:39:02.905Z,47.05
2023-05-19T23:41:36.723Z,47.08
2023-05-19T23:44:09.692Z,47.07
2023-05-19T23:46:43.802Z,46.96
2023-05-19T23:49:16.738Z,47.31
2023-05-19T23:51:49.670Z,47.49
2023-05-19T23:54:22.806Z,47.23
2023-05-19T23:56:56.590Z,47.20
2023-05-19T23:59:29.684Z,47.45
